sensor_id;sensor_type;location;lat;lon;timestamp;temperature;humidity
11577;DHT22;5844;51.496;6.788;2024-03-08T00:00:17;5.10;1.00
11577;DHT22;5844;51.496;6.788;2024-03-08T00:02:46;4.30;1.00
11577;DHT22;5844;51.496;6.788;2024-03-08T00:05:12;4.30;1.00
11577;DHT22;5844;51.496;6.788;2024-03-08T00:07:39;4.30;1.00
11577;DHT22;5844;51.496;6.788;2024-03-08T00:10:06;4.30;1.00
11577;DHT22;5844;51.496;6.788;2024-03-08T00:12:37;4.20;1.00
11577;DHT22;5844;51.496;6.788;2024-03-08T00:15:02;4.20;1.00
11577;DHT22;5844;51.496;6.788;2024-03-08T00:17:28;4.20;1.00
11577;DHT22;5844;51.496;6.788;2024-03-08T00:19:54;4.20;1.00
11577;DHT22;5844;51.496;6.788;2024-03-08T00:22:19;5.20;1.00
11577;DHT22;5844;51.496;6.788;2024-03-08T00:24:45;4.90;1.00
11577;DHT22;5844;51.496;6.788;2024-03-08T00:27:11;5.00;1.00
11577;DHT22;5844;51.496;6.788;2024-03-08T00:29:37;4.60;1.00
11577;DHT22;5844;51.496;6.788;2024-03-08T00:32:06;4.00;1.00
11577;DHT22;5844;51.496;6.788;2024-03-08T00:34:35;3.90;1.00
11577;DHT22;5844;51.496;6.788;2024-03-08T00:37:02;3.90;1.00
11577;DHT22;5844;51.496;6.788;2024-03-08T00:42:16;3.80;1.00
11577;DHT22;5844;51.496;6.788;2024-03-08T00:44:43;3.80;1.00
11577;DHT22;5844;51.496;6.788;2024-03-08T00:47:08;3.80;1.00
11577;DHT22;5844;51.496;6.788;2024-03-08T00:49:35;3.80;1.00
11577;DHT22;5844;51.496;6.788;2024-03-08T00:52:02;4.00;1.00
11577;DHT22;5844;51.496;6.788;2024-03-08T00:54:27;3.80;1.00
11577;DHT22;5844;51.496;6.788;2024-03-08T00:56:53;3.80;1.00
11577;DHT22;5844;51.496;6.788;2024-03-08T00:59:19;3.70;1.00
11577;DHT22;5844;51.496;6.788;2024-03-08T01:01:44;3.70;1.00
11577;DHT22;5844;51.496;6.788;2024-03-08T01:04:10;4.60;1.00
11577;DHT22;5844;51.496;6.788;2024-03-08T01:06:37;5.10;1.00
11577;DHT22;5844;51.496;6.788;2024-03-08T01:09:02;3.70;1.00
11577;DHT22;5844;51.496;6.788;2024-03-08T01:11:28;3.70;1.00
11577;DHT22;5844;51.496;6.788;2024-03-08T01:13:54;3.70;1.00
11577;DHT22;5844;51.496;6.788;2024-03-08T01:16:20;4.50;1.00
11577;DHT22;5844;51.496;6.788;2024-03-08T01:18:47;3.60;1.00
11577;DHT22;5844;51.496;6.788;2024-03-08T01:21:12;4.30;1.00
11577;DHT22;5844;51.496;6.788;2024-03-08T01:23:38;4.40;1.00
11577;DHT22;5844;51.496;6.788;2024-03-08T01:26:04;3.50;1.00
11577;DHT22;5844;51.496;6.788;2024-03-08T01:28:30;3.50;1.00
11577;DHT22;5844;51.496;6.788;2024-03-08T01:30:57;4.70;1.00
11577;DHT22;5844;51.496;6.788;2024-03-08T01:33:26;3.50;1.00
11577;DHT22;5844;51.496;6.788;2024-03-08T01:35:52;4.20;1.00
11577;DHT22;5844;51.496;6.788;2024-03-08T01:38:19;3.70;1.00
11577;DHT22;5844;51.496;6.788;2024-03-08T01:40:44;3.40;1.00
11577;DHT22;5844;51.496;6.788;2024-03-08T01:43:17;3.40;1.00
11577;DHT22;5844;51.496;6.788;2024-03-08T01:45:43;3.40;1.00
11577;DHT22;5844;51.496;6.788;2024-03-08T01:48:08;3.30;1.00
11577;DHT22;5844;51.496;6.788;2024-03-08T01:50:35;3.30;1.00
11577;DHT22;5844;51.496;6.788;2024-03-08T01:53:02;3.30;1.00
11577;DHT22;5844;51.496;6.788;2024-03-08T01:55:28;3.30;1.00
11577;DHT22;5844;51.496;6.788;2024-03-08T01:57:54;4.30;1.00
11577;DHT22;5844;51.496;6.788;2024-03-08T02:00:21;3.20;1.00
11577;DHT22;5844;51.496;6.788;2024-03-08T02:02:47;4.70;1.00
11577;DHT22;5844;51.496;6.788;2024-03-08T02:05:14;3.20;1.00
11577;DHT22;5844;51.496;6.788;2024-03-08T02:07:43;3.20;1.00
11577;DHT22;5844;51.496;6.788;2024-03-08T02:10:10;3.70;1.00
11577;DHT22;5844;51.496;6.788;2024-03-08T02:12:36;4.10;1.00
11577;DHT22;5844;51.496;6.788;2024-03-08T02:15:01;3.10;1.00
11577;DHT22;5844;51.496;6.788;2024-03-08T02:17:27;3.10;1.00
11577;DHT22;5844;51.496;6.788;2024-03-08T02:19:53;3.10;1.00
11577;DHT22;5844;51.496;6.788;2024-03-08T02:22:18;3.10;1.00
11577;DHT22;5844;51.496;6.788;2024-03-08T02:24:45;4.30;1.00
11577;DHT22;5844;51.496;6.788;2024-03-08T02:27:11;4.20;1.00
11577;DHT22;5844;51.496;6.788;2024-03-08T02:29:37;4.20;1.00
11577;DHT22;5844;51.496;6.788;2024-03-08T02:32:03;3.10;1.00
11577;DHT22;5844;51.496;6.788;2024-03-08T02:34:29;3.10;1.00
11577;DHT22;5844;51.496;6.788;2024-03-08T02:36:56;3.30;1.00
11577;DHT22;5844;51.496;6.788;2024-03-08T02:39:22;3.00;1.00
11577;DHT22;5844;51.496;6.788;2024-03-08T02:41:48;3.00;1.00
11577;DHT22;5844;51.496;6.788;2024-03-08T02:44:13;4.30;1.00
11577;DHT22;5844;51.496;6.788;2024-03-08T02:46:40;3.30;1.00
11577;DHT22;5844;51.496;6.788;2024-03-08T02:49:06;3.00;1.00
11577;DHT22;5844;51.496;6.788;2024-03-08T02:51:33;3.90;1.00
11577;DHT22;5844;51.496;6.788;2024-03-08T02:54:00;3.00;1.00
11577;DHT22;5844;51.496;6.788;2024-03-08T02:56:26;2.80;1.00
11577;DHT22;5844;51.496;6.788;2024-03-08T02:58:52;2.80;1.00
11577;DHT22;5844;51.496;6.788;2024-03-08T03:01:17;2.80;1.00
11577;DHT22;5844;51.496;6.788;2024-03-08T03:03:45;2.90;1.00
11577;DHT22;5844;51.496;6.788;2024-03-08T03:06:15;2.80;1.00
11577;DHT22;5844;51.496;6.788;2024-03-08T03:08:41;2.80;1.00
11577;DHT22;5844;51.496;6.788;2024-03-08T03:11:09;2.70;1.00
11577;DHT22;5844;51.496;6.788;2024-03-08T03:13:35;3.50;1.00
11577;DHT22;5844;51.496;6.788;2024-03-08T03:16:00;2.70;1.00
11577;DHT22;5844;51.496;6.788;2024-03-08T03:18:26;4.00;1.00
11577;DHT22;5844;51.496;6.788;2024-03-08T03:20:52;3.00;1.00
11577;DHT22;5844;51.496;6.788;2024-03-08T03:23:18;4.00;1.00
11577;DHT22;5844;51.496;6.788;2024-03-08T03:25:46;4.20;1.00
11577;DHT22;5844;51.496;6.788;2024-03-08T03:28:11;2.60;1.00
11577;DHT22;5844;51.496;6.788;2024-03-08T03:30:44;3.60;1.00
11577;DHT22;5844;51.496;6.788;2024-03-08T03:33:09;2.60;1.00
11577;DHT22;5844;51.496;6.788;2024-03-08T03:35:37;2.60;1.00
11577;DHT22;5844;51.496;6.788;2024-03-08T03:38:03;2.60;1.00
11577;DHT22;5844;51.496;6.788;2024-03-08T03:40:36;2.60;1.00
11577;DHT22;5844;51.496;6.788;2024-03-08T03:43:02;2.60;1.00
11577;DHT22;5844;51.496;6.788;2024-03-08T03:45:28;2.60;1.00
11577;DHT22;5844;51.496;6.788;2024-03-08T03:47:54;3.40;1.00
11577;DHT22;5844;51.496;6.788;2024-03-08T03:50:20;2.50;1.00
11577;DHT22;5844;51.496;6.788;2024-03-08T03:52:46;3.50;1.00
11577;DHT22;5844;51.496;6.788;2024-03-08T03:55:13;3.60;1.00
11577;DHT22;5844;51.496;6.788;2024-03-08T03:57:39;3.30;1.00
11577;DHT22;5844;51.496;6.788;2024-03-08T04:00:05;2.40;1.00
11577;DHT22;5844;51.496;6.788;2024-03-08T04:02:31;2.40;1.00
11577;DHT22;5844;51.496;6.788;2024-03-08T04:04:57;2.40;1.00
11577;DHT22;5844;51.496;6.788;2024-03-08T04:07:24;2.40;1.00
11577;DHT22;5844;51.496;6.788;2024-03-08T04:09:50;2.30;1.00
11577;DHT22;5844;51.496;6.788;2024-03-08T04:12:15;2.30;1.00
11577;DHT22;5844;51.496;6.788;2024-03-08T04:14:42;3.10;1.00
11577;DHT22;5844;51.496;6.788;2024-03-08T04:17:08;2.30;1.00
11577;DHT22;5844;51.496;6.788;2024-03-08T04:19:38;2.20;1.00
11577;DHT22;5844;51.496;6.788;2024-03-08T04:22:05;3.50;1.00
11577;DHT22;5844;51.496;6.788;2024-03-08T04:24:33;2.70;1.00
11577;DHT22;5844;51.496;6.788;2024-03-08T04:26:58;2.20;1.00
11577;DHT22;5844;51.496;6.788;2024-03-08T04:29:24;2.20;1.00
11577;DHT22;5844;51.496;6.788;2024-03-08T04:31:50;2.10;1.00
11577;DHT22;5844;51.496;6.788;2024-03-08T04:34:20;3.20;1.00
11577;DHT22;5844;51.496;6.788;2024-03-08T04:36:45;2.00;1.00
11577;DHT22;5844;51.496;6.788;2024-03-08T04:39:11;2.00;1.00
11577;DHT22;5844;51.496;6.788;2024-03-08T04:41:38;1.90;1.00
11577;DHT22;5844;51.496;6.788;2024-03-08T04:44:04;1.90;1.00
11577;DHT22;5844;51.496;6.788;2024-03-08T04:46:31;1.80;1.00
11577;DHT22;5844;51.496;6.788;2024-03-08T04:48:56;1.80;1.00
11577;DHT22;5844;51.496;6.788;2024-03-08T04:51:25;1.80;1.00
11577;DHT22;5844;51.496;6.788;2024-03-08T04:53:50;1.80;1.00
11577;DHT22;5844;51.496;6.788;2024-03-08T04:56:16;1.90;1.00
11577;DHT22;5844;51.496;6.788;2024-03-08T04:58:45;1.80;1.00
11577;DHT22;5844;51.496;6.788;2024-03-08T05:01:12;1.80;1.00
11577;DHT22;5844;51.496;6.788;2024-03-08T05:03:38;2.90;1.00
11577;DHT22;5844;51.496;6.788;2024-03-08T05:06:04;1.70;1.00
11577;DHT22;5844;51.496;6.788;2024-03-08T05:08:30;1.80;1.00
11577;DHT22;5844;51.496;6.788;2024-03-08T05:10:56;1.80;1.00
11577;DHT22;5844;51.496;6.788;2024-03-08T05:13:21;1.80;1.00
11577;DHT22;5844;51.496;6.788;2024-03-08T05:15:49;1.80;1.00
11577;DHT22;5844;51.496;6.788;2024-03-08T05:18:16;1.70;1.00
11577;DHT22;5844;51.496;6.788;2024-03-08T05:20:41;1.70;1.00
11577;DHT22;5844;51.496;6.788;2024-03-08T05:23:07;1.70;1.00
11577;DHT22;5844;51.496;6.788;2024-03-08T05:25:33;1.70;1.00
11577;DHT22;5844;51.496;6.788;2024-03-08T05:27:59;1.70;1.00
11577;DHT22;5844;51.496;6.788;2024-03-08T05:30:25;1.80;1.00
11577;DHT22;5844;51.496;6.788;2024-03-08T05:32:50;1.70;1.00
11577;DHT22;5844;51.496;6.788;2024-03-08T05:35:16;1.70;1.00
11577;DHT22;5844;51.496;6.788;2024-03-08T05:37:42;1.70;1.00
11577;DHT22;5844;51.496;6.788;2024-03-08T05:40:08;1.70;1.00
11577;DHT22;5844;51.496;6.788;2024-03-08T05:42:37;1.70;1.00
11577;DHT22;5844;51.496;6.788;2024-03-08T05:45:06;1.80;1.00
11577;DHT22;5844;51.496;6.788;2024-03-08T05:47:32;1.80;1.00
11577;DHT22;5844;51.496;6.788;2024-03-08T05:50:00;2.90;1.00
11577;DHT22;5844;51.496;6.788;2024-03-08T05:52:27;1.80;1.00
11577;DHT22;5844;51.496;6.788;2024-03-08T05:54:52;1.80;1.00
11577;DHT22;5844;51.496;6.788;2024-03-08T05:57:18;1.80;1.00
11577;DHT22;5844;51.496;6.788;2024-03-08T05:59:44;1.80;1.00
11577;DHT22;5844;51.496;6.788;2024-03-08T06:02:10;1.70;1.00
11577;DHT22;5844;51.496;6.788;2024-03-08T06:04:36;2.70;1.00
11577;DHT22;5844;51.496;6.788;2024-03-08T06:07:01;1.70;1.00
11577;DHT22;5844;51.496;6.788;2024-03-08T06:09:29;1.70;1.00
11577;DHT22;5844;51.496;6.788;2024-03-08T06:11:55;1.90;1.00
11577;DHT22;5844;51.496;6.788;2024-03-08T06:14:22;1.70;1.00
11577;DHT22;5844;51.496;6.788;2024-03-08T06:16:48;1.80;1.00
11577;DHT22;5844;51.496;6.788;2024-03-08T06:19:17;1.80;1.00
11577;DHT22;5844;51.496;6.788;2024-03-08T06:21:43;2.50;1.00
11577;DHT22;5844;51.496;6.788;2024-03-08T06:24:09;1.90;1.00
11577;DHT22;5844;51.496;6.788;2024-03-08T06:26:34;1.90;1.00
11577;DHT22;5844;51.496;6.788;2024-03-08T06:29:00;1.90;1.00
11577;DHT22;5844;51.496;6.788;2024-03-08T06:31:25;1.90;1.00
11577;DHT22;5844;51.496;6.788;2024-03-08T06:33:51;1.90;1.00
11577;DHT22;5844;51.496;6.788;2024-03-08T06:36:19;2.00;1.00
11577;DHT22;5844;51.496;6.788;2024-03-08T06:38:50;2.00;1.00
11577;DHT22;5844;51.496;6.788;2024-03-08T06:41:15;2.10;1.00
11577;DHT22;5844;51.496;6.788;2024-03-08T06:43:45;2.10;1.00
11577;DHT22;5844;51.496;6.788;2024-03-08T06:46:12;2.10;1.00
11577;DHT22;5844;51.496;6.788;2024-03-08T06:48:41;2.10;1.00
11577;DHT22;5844;51.496;6.788;2024-03-08T06:51:07;2.20;1.00
11577;DHT22;5844;51.496;6.788;2024-03-08T06:53:33;2.80;1.00
11577;DHT22;5844;51.496;6.788;2024-03-08T06:56:01;2.20;1.00
11577;DHT22;5844;51.496;6.788;2024-03-08T06:58:27;2.30;1.00
11577;DHT22;5844;51.496;6.788;2024-03-08T07:00:53;3.00;1.00
11577;DHT22;5844;51.496;6.788;2024-03-08T07:03:19;3.10;1.00
11577;DHT22;5844;51.496;6.788;2024-03-08T07:05:47;3.50;1.00
11577;DHT22;5844;51.496;6.788;2024-03-08T07:08:13;3.50;1.00
11577;DHT22;5844;51.496;6.788;2024-03-08T07:10:39;2.50;1.00
11577;DHT22;5844;51.496;6.788;2024-03-08T07:13:07;3.60;1.00
11577;DHT22;5844;51.496;6.788;2024-03-08T07:15:33;2.60;1.00
11577;DHT22;5844;51.496;6.788;2024-03-08T07:17:59;3.20;1.00
11577;DHT22;5844;51.496;6.788;2024-03-08T07:20:25;2.70;1.00
11577;DHT22;5844;51.496;6.788;2024-03-08T07:22:51;3.90;1.00
11577;DHT22;5844;51.496;6.788;2024-03-08T07:25:17;3.80;1.00
11577;DHT22;5844;51.496;6.788;2024-03-08T07:27:43;2.90;1.00
11577;DHT22;5844;51.496;6.788;2024-03-08T07:30:09;3.00;1.00
11577;DHT22;5844;51.496;6.788;2024-03-08T07:32:37;3.10;1.00
11577;DHT22;5844;51.496;6.788;2024-03-08T07:35:03;3.20;1.00
11577;DHT22;5844;51.496;6.788;2024-03-08T07:37:29;3.20;1.00
11577;DHT22;5844;51.496;6.788;2024-03-08T07:39:55;3.30;1.00
11577;DHT22;5844;51.496;6.788;2024-03-08T07:42:21;3.40;1.00
11577;DHT22;5844;51.496;6.788;2024-03-08T07:44:48;3.70;1.00
11577;DHT22;5844;51.496;6.788;2024-03-08T07:47:15;3.50;1.00
11577;DHT22;5844;51.496;6.788;2024-03-08T07:49:42;3.60;1.00
11577;DHT22;5844;51.496;6.788;2024-03-08T07:52:09;4.20;1.00
11577;DHT22;5844;51.496;6.788;2024-03-08T07:54:41;4.00;1.00
11577;DHT22;5844;51.496;6.788;2024-03-08T07:57:06;4.60;1.00
11577;DHT22;5844;51.496;6.788;2024-03-08T07:59:32;4.40;1.00
11577;DHT22;5844;51.496;6.788;2024-03-08T08:01:58;4.30;1.00
11577;DHT22;5844;51.496;6.788;2024-03-08T08:04:24;4.40;1.00
11577;DHT22;5844;51.496;6.788;2024-03-08T08:06:50;4.90;1.00
11577;DHT22;5844;51.496;6.788;2024-03-08T08:09:16;4.30;1.00
11577;DHT22;5844;51.496;6.788;2024-03-08T08:11:56;4.50;1.00
11577;DHT22;5844;51.496;6.788;2024-03-08T08:14:22;4.60;1.00
11577;DHT22;5844;51.496;6.788;2024-03-08T08:16:47;4.90;1.00
11577;DHT22;5844;51.496;6.788;2024-03-08T08:19:15;4.90;1.00
11577;DHT22;5844;51.496;6.788;2024-03-08T08:21:41;5.40;1.00
11577;DHT22;5844;51.496;6.788;2024-03-08T08:24:07;5.30;1.00
11577;DHT22;5844;51.496;6.788;2024-03-08T08:26:32;5.20;1.00
11577;DHT22;5844;51.496;6.788;2024-03-08T08:28:59;5.30;1.00
11577;DHT22;5844;51.496;6.788;2024-03-08T08:31:25;5.50;1.00
11577;DHT22;5844;51.496;6.788;2024-03-08T08:33:51;6.00;1.00
11577;DHT22;5844;51.496;6.788;2024-03-08T08:36:26;6.30;1.00
11577;DHT22;5844;51.496;6.788;2024-03-08T08:38:52;6.50;1.00
11577;DHT22;5844;51.496;6.788;2024-03-08T08:41:21;6.70;1.00
11577;DHT22;5844;51.496;6.788;2024-03-08T08:43:47;6.80;1.00
11577;DHT22;5844;51.496;6.788;2024-03-08T08:46:17;7.10;1.00
11577;DHT22;5844;51.496;6.788;2024-03-08T08:48:43;7.40;1.00
11577;DHT22;5844;51.496;6.788;2024-03-08T08:51:11;7.40;1.00
11577;DHT22;5844;51.496;6.788;2024-03-08T08:53:41;7.60;1.00
11577;DHT22;5844;51.496;6.788;2024-03-08T08:56:09;7.80;1.00
11577;DHT22;5844;51.496;6.788;2024-03-08T08:58:44;8.10;1.00
11577;DHT22;5844;51.496;6.788;2024-03-08T09:01:10;8.30;1.00
11577;DHT22;5844;51.496;6.788;2024-03-08T09:03:36;8.80;1.00
11577;DHT22;5844;51.496;6.788;2024-03-08T09:06:12;8.80;1.00
11577;DHT22;5844;51.496;6.788;2024-03-08T09:08:41;9.20;1.00
11577;DHT22;5844;51.496;6.788;2024-03-08T09:11:07;9.30;1.00
11577;DHT22;5844;51.496;6.788;2024-03-08T09:13:33;9.10;1.00
11577;DHT22;5844;51.496;6.788;2024-03-08T09:15:59;9.20;1.00
11577;DHT22;5844;51.496;6.788;2024-03-08T09:18:25;9.20;1.00
11577;DHT22;5844;51.496;6.788;2024-03-08T09:20:50;9.50;1.00
11577;DHT22;5844;51.496;6.788;2024-03-08T09:23:19;9.80;1.00
11577;DHT22;5844;51.496;6.788;2024-03-08T09:25:45;10.00;1.00
11577;DHT22;5844;51.496;6.788;2024-03-08T09:28:12;10.10;1.00
11577;DHT22;5844;51.496;6.788;2024-03-08T09:30:38;10.30;1.00
11577;DHT22;5844;51.496;6.788;2024-03-08T09:33:05;10.50;1.00
11577;DHT22;5844;51.496;6.788;2024-03-08T09:35:31;11.20;1.00
11577;DHT22;5844;51.496;6.788;2024-03-08T09:37:57;10.90;1.00
11577;DHT22;5844;51.496;6.788;2024-03-08T09:40:22;11.00;1.00
11577;DHT22;5844;51.496;6.788;2024-03-08T09:42:50;11.30;1.00
11577;DHT22;5844;51.496;6.788;2024-03-08T09:45:17;11.40;1.00
11577;DHT22;5844;51.496;6.788;2024-03-08T09:47:43;11.30;1.00
11577;DHT22;5844;51.496;6.788;2024-03-08T09:50:10;11.40;1.00
11577;DHT22;5844;51.496;6.788;2024-03-08T09:52:38;11.30;1.00
11577;DHT22;5844;51.496;6.788;2024-03-08T09:55:06;11.70;1.00
11577;DHT22;5844;51.496;6.788;2024-03-08T09:57:33;11.80;1.00
11577;DHT22;5844;51.496;6.788;2024-03-08T09:59:59;12.10;1.00
11577;DHT22;5844;51.496;6.788;2024-03-08T10:02:25;11.90;1.00
11577;DHT22;5844;51.496;6.788;2024-03-08T10:04:51;12.20;1.00
11577;DHT22;5844;51.496;6.788;2024-03-08T10:07:19;12.40;1.00
11577;DHT22;5844;51.496;6.788;2024-03-08T10:09:44;12.10;1.00
11577;DHT22;5844;51.496;6.788;2024-03-08T10:12:16;12.40;1.00
11577;DHT22;5844;51.496;6.788;2024-03-08T10:14:42;12.60;1.00
11577;DHT22;5844;51.496;6.788;2024-03-08T10:17:09;12.80;1.00
11577;DHT22;5844;51.496;6.788;2024-03-08T10:19:34;13.20;1.00
11577;DHT22;5844;51.496;6.788;2024-03-08T10:22:00;12.70;1.00
11577;DHT22;5844;51.496;6.788;2024-03-08T10:24:26;12.70;1.00
11577;DHT22;5844;51.496;6.788;2024-03-08T10:27:01;12.80;1.00
11577;DHT22;5844;51.496;6.788;2024-03-08T10:29:31;13.10;1.00
11577;DHT22;5844;51.496;6.788;2024-03-08T10:31:57;13.20;1.00
11577;DHT22;5844;51.496;6.788;2024-03-08T10:34:23;13.00;1.00
11577;DHT22;5844;51.496;6.788;2024-03-08T10:36:51;12.80;1.00
11577;DHT22;5844;51.496;6.788;2024-03-08T10:39:24;12.80;1.00
11577;DHT22;5844;51.496;6.788;2024-03-08T10:41:55;13.40;1.00
11577;DHT22;5844;51.496;6.788;2024-03-08T10:50:24;14.30;1.00
11577;DHT22;5844;51.496;6.788;2024-03-08T10:52:31;14.20;1.00
11577;DHT22;5844;51.496;6.788;2024-03-08T10:54:57;14.60;1.00
11577;DHT22;5844;51.496;6.788;2024-03-08T10:57:24;14.70;1.00
11577;DHT22;5844;51.496;6.788;2024-03-08T10:59:50;14.30;1.00
11577;DHT22;5844;51.496;6.788;2024-03-08T11:02:17;14.50;1.00
11577;DHT22;5844;51.496;6.788;2024-03-08T11:04:50;14.80;1.00
11577;DHT22;5844;51.496;6.788;2024-03-08T11:07:16;15.30;1.00
11577;DHT22;5844;51.496;6.788;2024-03-08T11:09:44;15.20;1.00
11577;DHT22;5844;51.496;6.788;2024-03-08T11:12:28;15.40;1.00
11577;DHT22;5844;51.496;6.788;2024-03-08T11:15:02;15.30;1.00
11577;DHT22;5844;51.496;6.788;2024-03-08T11:20:17;15.60;1.00
11577;DHT22;5844;51.496;6.788;2024-03-08T11:22:54;15.20;1.00
11577;DHT22;5844;51.496;6.788;2024-03-08T11:28:19;15.90;1.00
11577;DHT22;5844;51.496;6.788;2024-03-08T11:33:34;16.40;1.00
11577;DHT22;5844;51.496;6.788;2024-03-08T11:36:33;16.20;1.00
11577;DHT22;5844;51.496;6.788;2024-03-08T11:39:01;15.90;1.00
11577;DHT22;5844;51.496;6.788;2024-03-08T11:41:35;16.00;1.00
11577;DHT22;5844;51.496;6.788;2024-03-08T11:44:04;16.30;1.00
11577;DHT22;5844;51.496;6.788;2024-03-08T11:46:30;16.10;1.00
11577;DHT22;5844;51.496;6.788;2024-03-08T11:48:56;17.30;1.00
11577;DHT22;5844;51.496;6.788;2024-03-08T11:51:22;18.10;1.00
11577;DHT22;5844;51.496;6.788;2024-03-08T11:53:49;18.00;1.00
11577;DHT22;5844;51.496;6.788;2024-03-08T11:56:18;17.90;1.00
11577;DHT22;5844;51.496;6.788;2024-03-08T11:58:53;17.90;1.00
11577;DHT22;5844;51.496;6.788;2024-03-08T12:01:19;17.60;1.00
11577;DHT22;5844;51.496;6.788;2024-03-08T12:03:53;17.80;1.00
11577;DHT22;5844;51.496;6.788;2024-03-08T12:06:19;17.90;1.00
11577;DHT22;5844;51.496;6.788;2024-03-08T12:08:48;18.00;1.00
11577;DHT22;5844;51.496;6.788;2024-03-08T12:11:14;17.80;1.00
11577;DHT22;5844;51.496;6.788;2024-03-08T12:13:41;18.40;1.00
11577;DHT22;5844;51.496;6.788;2024-03-08T12:16:07;18.40;1.00
11577;DHT22;5844;51.496;6.788;2024-03-08T12:18:36;18.90;1.00
11577;DHT22;5844;51.496;6.788;2024-03-08T12:21:11;18.90;1.00
11577;DHT22;5844;51.496;6.788;2024-03-08T12:23:39;18.90;1.00
11577;DHT22;5844;51.496;6.788;2024-03-08T12:26:14;19.10;1.00
11577;DHT22;5844;51.496;6.788;2024-03-08T12:28:42;19.30;1.00
11577;DHT22;5844;51.496;6.788;2024-03-08T12:31:12;18.80;1.00
11577;DHT22;5844;51.496;6.788;2024-03-08T12:33:50;18.60;1.00
11577;DHT22;5844;51.496;6.788;2024-03-08T12:36:17;19.30;1.00
11577;DHT22;5844;51.496;6.788;2024-03-08T12:38:47;19.70;1.00
11577;DHT22;5844;51.496;6.788;2024-03-08T12:41:16;19.70;1.00
11577;DHT22;5844;51.496;6.788;2024-03-08T12:43:45;19.60;1.00
11577;DHT22;5844;51.496;6.788;2024-03-08T12:46:18;19.30;1.00
11577;DHT22;5844;51.496;6.788;2024-03-08T12:49:02;19.10;1.00
11577;DHT22;5844;51.496;6.788;2024-03-08T12:51:30;19.30;1.00
11577;DHT22;5844;51.496;6.788;2024-03-08T12:53:55;19.40;1.00
11577;DHT22;5844;51.496;6.788;2024-03-08T12:56:32;19.20;1.00
11577;DHT22;5844;51.496;6.788;2024-03-08T12:58:59;20.00;1.00
11577;DHT22;5844;51.496;6.788;2024-03-08T13:01:26;20.20;1.00
11577;DHT22;5844;51.496;6.788;2024-03-08T13:03:55;20.60;1.00
11577;DHT22;5844;51.496;6.788;2024-03-08T13:06:21;20.70;1.00
11577;DHT22;5844;51.496;6.788;2024-03-08T13:08:50;20.70;1.00
11577;DHT22;5844;51.496;6.788;2024-03-08T13:11:17;20.20;1.00
11577;DHT22;5844;51.496;6.788;2024-03-08T13:13:44;20.20;1.00
11577;DHT22;5844;51.496;6.788;2024-03-08T13:16:10;19.90;1.00
11577;DHT22;5844;51.496;6.788;2024-03-08T13:18:37;20.30;1.00
11577;DHT22;5844;51.496;6.788;2024-03-08T13:21:04;20.10;1.00
11577;DHT22;5844;51.496;6.788;2024-03-08T13:23:31;19.20;1.00
11577;DHT22;5844;51.496;6.788;2024-03-08T13:25:57;19.40;1.00
11577;DHT22;5844;51.496;6.788;2024-03-08T13:28:22;19.90;1.00
11577;DHT22;5844;51.496;6.788;2024-03-08T13:30:53;20.50;1.00
11577;DHT22;5844;51.496;6.788;2024-03-08T13:33:19;20.50;1.00
11577;DHT22;5844;51.496;6.788;2024-03-08T13:35:46;20.70;1.00
11577;DHT22;5844;51.496;6.788;2024-03-08T13:38:12;21.10;1.00
11577;DHT22;5844;51.496;6.788;2024-03-08T13:40:39;20.80;1.00
11577;DHT22;5844;51.496;6.788;2024-03-08T13:43:06;21.10;1.00
11577;DHT22;5844;51.496;6.788;2024-03-08T13:45:34;21.00;1.00
11577;DHT22;5844;51.496;6.788;2024-03-08T13:48:03;20.60;1.00
11577;DHT22;5844;51.496;6.788;2024-03-08T13:50:30;20.20;1.00
11577;DHT22;5844;51.496;6.788;2024-03-08T13:52:56;20.60;1.00
11577;DHT22;5844;51.496;6.788;2024-03-08T13:55:22;20.90;1.00
11577;DHT22;5844;51.496;6.788;2024-03-08T13:57:48;20.80;1.00
11577;DHT22;5844;51.496;6.788;2024-03-08T14:00:15;21.10;1.00
11577;DHT22;5844;51.496;6.788;2024-03-08T14:02:41;20.50;1.00
11577;DHT22;5844;51.496;6.788;2024-03-08T14:05:08;20.60;1.00
11577;DHT22;5844;51.496;6.788;2024-03-08T14:07:37;20.30;1.00
11577;DHT22;5844;51.496;6.788;2024-03-08T14:10:04;20.30;1.00
11577;DHT22;5844;51.496;6.788;2024-03-08T14:12:32;20.70;1.00
11577;DHT22;5844;51.496;6.788;2024-03-08T14:14:58;20.60;1.00
11577;DHT22;5844;51.496;6.788;2024-03-08T14:17:26;20.50;1.00
11577;DHT22;5844;51.496;6.788;2024-03-08T14:19:53;21.10;1.00
11577;DHT22;5844;51.496;6.788;2024-03-08T14:22:20;21.40;1.00
11577;DHT22;5844;51.496;6.788;2024-03-08T14:24:45;21.70;1.00
11577;DHT22;5844;51.496;6.788;2024-03-08T14:27:12;21.80;1.00
11577;DHT22;5844;51.496;6.788;2024-03-08T14:29:40;20.90;1.00
11577;DHT22;5844;51.496;6.788;2024-03-08T14:32:05;21.10;1.00
11577;DHT22;5844;51.496;6.788;2024-03-08T14:34:32;20.50;1.00
11577;DHT22;5844;51.496;6.788;2024-03-08T14:36:59;20.20;1.00
11577;DHT22;5844;51.496;6.788;2024-03-08T14:39:25;20.10;1.00
11577;DHT22;5844;51.496;6.788;2024-03-08T14:41:55;20.50;1.00
11577;DHT22;5844;51.496;6.788;2024-03-08T14:44:21;20.40;1.00
11577;DHT22;5844;51.496;6.788;2024-03-08T14:46:55;20.30;1.00
11577;DHT22;5844;51.496;6.788;2024-03-08T14:49:23;20.80;1.00
11577;DHT22;5844;51.496;6.788;2024-03-08T14:51:49;20.80;1.00
11577;DHT22;5844;51.496;6.788;2024-03-08T14:54:15;20.90;1.00
11577;DHT22;5844;51.496;6.788;2024-03-08T14:56:40;21.60;1.00
11577;DHT22;5844;51.496;6.788;2024-03-08T14:59:09;21.10;1.00
11577;DHT22;5844;51.496;6.788;2024-03-08T15:01:35;21.30;1.00
11577;DHT22;5844;51.496;6.788;2024-03-08T15:04:04;21.50;1.00
11577;DHT22;5844;51.496;6.788;2024-03-08T15:06:39;21.10;1.00
11577;DHT22;5844;51.496;6.788;2024-03-08T15:09:05;21.00;1.00
11577;DHT22;5844;51.496;6.788;2024-03-08T15:11:40;20.70;1.00
11577;DHT22;5844;51.496;6.788;2024-03-08T15:14:07;20.80;1.00
11577;DHT22;5844;51.496;6.788;2024-03-08T15:16:39;20.60;1.00
11577;DHT22;5844;51.496;6.788;2024-03-08T15:19:06;20.30;1.00
11577;DHT22;5844;51.496;6.788;2024-03-08T15:21:32;19.90;1.00
11577;DHT22;5844;51.496;6.788;2024-03-08T15:23:59;20.10;1.00
11577;DHT22;5844;51.496;6.788;2024-03-08T15:26:26;20.10;1.00
11577;DHT22;5844;51.496;6.788;2024-03-08T15:28:52;19.90;1.00
11577;DHT22;5844;51.496;6.788;2024-03-08T15:31:19;20.40;1.00
11577;DHT22;5844;51.496;6.788;2024-03-08T15:33:46;20.40;1.00
11577;DHT22;5844;51.496;6.788;2024-03-08T15:36:17;20.30;1.00
11577;DHT22;5844;51.496;6.788;2024-03-08T15:38:46;20.10;1.00
11577;DHT22;5844;51.496;6.788;2024-03-08T15:41:12;19.90;1.00
11577;DHT22;5844;51.496;6.788;2024-03-08T15:43:39;20.20;1.00
11577;DHT22;5844;51.496;6.788;2024-03-08T15:46:08;19.70;1.00
11577;DHT22;5844;51.496;6.788;2024-03-08T15:48:35;18.80;1.00
11577;DHT22;5844;51.496;6.788;2024-03-08T15:51:06;18.10;1.00
11577;DHT22;5844;51.496;6.788;2024-03-08T15:53:35;18.00;1.00
11577;DHT22;5844;51.496;6.788;2024-03-08T15:56:03;17.80;1.00
11577;DHT22;5844;51.496;6.788;2024-03-08T15:58:31;18.30;1.00
11577;DHT22;5844;51.496;6.788;2024-03-08T16:00:58;18.20;1.00
11577;DHT22;5844;51.496;6.788;2024-03-08T16:03:25;17.90;1.00
11577;DHT22;5844;51.496;6.788;2024-03-08T16:05:53;17.80;1.00
11577;DHT22;5844;51.496;6.788;2024-03-08T16:08:19;17.40;1.00
11577;DHT22;5844;51.496;6.788;2024-03-08T16:10:52;17.00;1.00
11577;DHT22;5844;51.496;6.788;2024-03-08T16:13:25;16.70;1.00
11577;DHT22;5844;51.496;6.788;2024-03-08T16:15:55;16.20;1.00
11577;DHT22;5844;51.496;6.788;2024-03-08T16:18:22;15.40;1.00
11577;DHT22;5844;51.496;6.788;2024-03-08T16:20:52;14.70;1.00
11577;DHT22;5844;51.496;6.788;2024-03-08T16:23:18;13.90;1.00
11577;DHT22;5844;51.496;6.788;2024-03-08T16:25:44;13.50;1.00
11577;DHT22;5844;51.496;6.788;2024-03-08T16:28:11;13.10;1.00